createdAt,value
2022-08-17T00:01:27.924Z,7.20
2022-08-17T00:03:55.808Z,9.70
2022-08-17T00:06:25.967Z,7.25
2022-08-17T00:09:01.167Z,7.63
2022-08-17T00:11:31.240Z,8.18
2022-08-17T00:14:05.219Z,7.15
2022-08-17T00:16:55.611Z,7.72
2022-08-17T00:19:25.756Z,7.55
2022-08-17T00:22:32.942Z,6.13
2022-08-17T00:24:43.025Z,7.90
2022-08-17T00:27:09.778Z,7.40
2022-08-17T00:29:36.223Z,7.93
2022-08-17T00:33:12.527Z,9.40
2022-08-17T00:34:50.105Z,7.70
2022-08-17T00:37:17.008Z,8.32
2022-08-17T00:39:43.765Z,8.98
2022-08-17T00:42:19.159Z,7.05
2022-08-17T00:44:46.085Z,8.30
2022-08-17T00:47:12.518Z,10.20
2022-08-17T00:49:39.459Z,7.75
2022-08-17T00:52:15.361Z,8.95
2022-08-17T00:54:45.461Z,7.80
2022-08-17T00:57:38.281Z,7.03
2022-08-17T01:00:19.881Z,10.88
2022-08-17T01:02:47.724Z,7.28
2022-08-17T01:05:20.993Z,9.20
2022-08-17T01:07:50.718Z,7.35
2022-08-17T01:11:00.423Z,8.68
2022-08-17T01:13:10.639Z,7.95
2022-08-17T01:15:40.676Z,9.68
2022-08-17T01:18:10.304Z,7.78
2022-08-17T01:20:48.140Z,8.98
2022-08-17T01:23:18.536Z,6.70
2022-08-17T01:25:52.708Z,8.18
2022-08-17T01:28:53.227Z,8.38
2022-08-17T01:31:08.644Z,8.25
2022-08-17T01:33:35.938Z,8.00
2022-08-17T01:36:04.411Z,9.55
2022-08-17T01:38:32.248Z,8.57
2022-08-17T01:41:03.515Z,7.43
2022-08-17T01:43:35.025Z,9.10
2022-08-17T01:46:03.704Z,7.78
2022-08-17T01:48:33.219Z,8.27
2022-08-17T01:51:01.000Z,7.57
2022-08-17T01:53:34.725Z,7.55
2022-08-17T01:56:08.358Z,8.88
2022-08-17T01:58:35.685Z,6.15
2022-08-17T02:01:03.946Z,7.00
2022-08-17T02:03:30.566Z,7.78
2022-08-17T02:05:58.047Z,6.78
2022-08-17T02:08:37.324Z,7.50
2022-08-17T02:11:12.097Z,8.40
2022-08-17T02:13:39.540Z,9.32
2022-08-17T02:16:06.254Z,7.32
2022-08-17T02:18:33.448Z,7.57
2022-08-17T02:21:00.460Z,7.88
2022-08-17T02:23:30.273Z,8.90
2022-08-17T02:26:00.323Z,7.55
2022-08-17T02:28:28.674Z,6.88
2022-08-17T02:31:02.597Z,7.65
2022-08-17T02:33:43.053Z,8.05
2022-08-17T02:36:11.952Z,6.82
2022-08-17T02:38:39.856Z,11.63
2022-08-17T02:41:06.752Z,7.57
2022-08-17T02:43:33.577Z,7.75
2022-08-17T02:46:00.078Z,7.10
2022-08-17T02:48:28.038Z,9.40
2022-08-17T02:50:58.319Z,9.50
2022-08-17T02:53:25.706Z,8.90
2022-08-17T02:55:52.579Z,7.75
2022-08-17T02:58:34.453Z,7.22
2022-08-17T03:01:04.702Z,9.50
2022-08-17T03:03:31.636Z,9.93
2022-08-17T03:05:58.092Z,11.50
2022-08-17T03:08:25.349Z,8.70
2022-08-17T03:10:52.396Z,7.57
2022-08-17T03:13:19.289Z,6.95
2022-08-17T03:15:46.796Z,7.97
2022-08-17T03:18:24.932Z,8.27
2022-08-17T03:20:57.950Z,7.40
2022-08-17T03:23:25.664Z,7.53
2022-08-17T03:25:53.902Z,6.63
2022-08-17T03:28:21.961Z,7.82
2022-08-17T03:30:49.276Z,8.48
2022-08-17T03:33:16.125Z,6.88
2022-08-17T03:35:43.892Z,9.07
2022-08-17T03:38:11.798Z,10.05
2022-08-17T03:40:57.221Z,7.72
2022-08-17T03:43:26.653Z,9.68
2022-08-17T03:46:28.486Z,9.13
2022-08-17T03:49:16.695Z,8.57
2022-08-17T03:52:01.588Z,6.60
2022-08-17T03:54:47.279Z,7.63
2022-08-17T03:57:14.024Z,6.30
2022-08-17T03:59:40.897Z,7.43
2022-08-17T04:02:19.521Z,8.70
2022-08-17T04:04:46.501Z,8.35
2022-08-17T04:07:13.289Z,8.80
2022-08-17T04:09:40.051Z,6.82
2022-08-17T04:12:06.610Z,8.95
2022-08-17T04:14:36.706Z,8.30
2022-08-17T04:17:18.808Z,7.32
2022-08-17T04:19:47.231Z,7.80
2022-08-17T04:22:30.291Z,8.73
2022-08-17T04:25:01.039Z,9.15
2022-08-17T04:27:27.420Z,7.72
2022-08-17T04:29:55.794Z,7.65
2022-08-17T04:32:25.165Z,10.30
2022-08-17T04:35:10.026Z,6.80
2022-08-17T04:37:36.818Z,7.00
2022-08-17T04:40:22.832Z,6.85
2022-08-17T04:43:07.815Z,7.60
2022-08-17T04:45:38.825Z,8.05
2022-08-17T04:48:05.832Z,7.10
2022-08-17T04:50:35.143Z,7.03
2022-08-17T04:53:02.139Z,7.43
2022-08-17T04:55:28.941Z,7.55
2022-08-17T04:57:55.999Z,8.10
2022-08-17T05:00:25.544Z,9.30
2022-08-17T05:02:55.256Z,8.70
2022-08-17T05:05:27.209Z,8.27
2022-08-17T05:07:57.039Z,7.47
2022-08-17T05:10:29.807Z,7.90
2022-08-17T05:13:13.233Z,9.00
2022-08-17T05:15:44.842Z,8.30
2022-08-17T05:18:13.147Z,7.68
2022-08-17T05:20:40.626Z,7.78
2022-08-17T05:23:10.649Z,8.02
2022-08-17T05:25:45.688Z,6.88
2022-08-17T05:28:16.114Z,7.70
2022-08-17T05:30:43.863Z,8.48
2022-08-17T05:33:34.887Z,7.53
2022-08-17T05:36:03.148Z,7.05
2022-08-17T05:38:30.668Z,6.72
2022-08-17T05:40:59.262Z,7.55
2022-08-17T05:43:31.754Z,7.47
2022-08-17T05:46:10.730Z,8.02
2022-08-17T05:48:40.509Z,8.73
2022-08-17T05:51:27.777Z,7.55
2022-08-17T05:54:06.052Z,6.88
2022-08-17T05:57:00.489Z,6.55
2022-08-17T05:59:32.783Z,7.23
2022-08-17T06:02:10.131Z,7.47
2022-08-17T06:04:57.958Z,7.40
2022-08-17T06:07:42.485Z,7.03
2022-08-17T06:10:38.725Z,7.57
2022-08-17T06:13:16.500Z,7.18
2022-08-17T06:16:34.201Z,5.82
2022-08-17T06:19:39.428Z,7.63
2022-08-17T06:22:10.141Z,4.90
2022-08-17T06:24:48.341Z,7.00
2022-08-17T06:27:38.953Z,7.22
2022-08-17T06:30:13.299Z,5.57
2022-08-17T06:32:44.104Z,5.43
2022-08-17T06:35:14.220Z,7.13
2022-08-17T06:37:56.288Z,5.28
2022-08-17T06:40:51.997Z,4.63
2022-08-17T06:43:24.432Z,5.05
2022-08-17T06:45:59.279Z,5.45
2022-08-17T06:48:48.308Z,7.15
2022-08-17T06:51:23.852Z,5.68
2022-08-17T06:53:59.617Z,6.18
2022-08-17T06:56:53.511Z,8.18
2022-08-17T06:59:47.173Z,4.88
2022-08-17T07:02:29.327Z,7.82
2022-08-17T07:05:15.480Z,6.82
2022-08-17T07:08:15.263Z,8.82
2022-08-17T07:10:47.961Z,6.28
2022-08-17T07:13:29.696Z,4.90
2022-08-17T07:16:13.071Z,6.32
2022-08-17T07:18:39.994Z,6.82
2022-08-17T07:21:19.205Z,6.13
2022-08-17T07:24:03.877Z,3.90
2022-08-17T07:26:30.316Z,4.28
2022-08-17T07:28:57.198Z,3.67
2022-08-17T07:31:26.801Z,5.65
2022-08-17T07:34:19.383Z,6.35
2022-08-17T07:36:45.796Z,5.72
2022-08-17T07:39:12.245Z,8.48
2022-08-17T07:41:57.646Z,4.88
2022-08-17T07:44:27.109Z,6.97
2022-08-17T07:47:13.327Z,4.80
2022-08-17T07:49:44.540Z,5.30
2022-08-17T07:52:51.828Z,4.75
2022-08-17T07:55:33.279Z,5.22
2022-08-17T07:58:00.054Z,5.47
2022-08-17T08:00:32.653Z,4.13
2022-08-17T08:03:17.709Z,5.18
2022-08-17T08:05:58.032Z,4.95
2022-08-17T08:08:26.249Z,4.05
2022-08-17T08:11:12.028Z,5.93
2022-08-17T08:13:42.542Z,4.80
2022-08-17T08:16:29.608Z,5.20
2022-08-17T08:19:02.624Z,5.13
2022-08-17T08:22:06.489Z,4.28
2022-08-17T08:25:28.874Z,5.50
2022-08-17T08:28:17.089Z,6.45
2022-08-17T08:30:49.495Z,5.10
2022-08-17T08:33:37.968Z,5.15
2022-08-17T08:37:15.892Z,4.35
2022-08-17T08:39:30.342Z,6.88
2022-08-17T08:42:07.582Z,5.15
2022-08-17T08:45:07.829Z,4.32
2022-08-17T08:47:53.881Z,3.42
2022-08-17T08:50:43.173Z,6.13
2022-08-17T08:53:25.141Z,4.50
2022-08-17T08:56:11.827Z,5.05
2022-08-17T08:58:42.458Z,5.05
2022-08-17T09:01:24.569Z,4.65
2022-08-17T09:04:23.184Z,5.85
2022-08-17T09:07:12.592Z,6.53
2022-08-17T09:09:46.369Z,6.40
2022-08-17T09:12:29.761Z,7.10
2022-08-17T09:15:13.792Z,4.55
2022-08-17T09:18:03.671Z,4.57
2022-08-17T09:20:48.097Z,4.00
2022-08-17T09:23:42.069Z,3.75
2022-08-17T09:26:23.916Z,5.32
2022-08-17T09:28:52.898Z,3.80
2022-08-17T09:31:29.959Z,3.65
2022-08-17T09:34:02.653Z,3.20
2022-08-17T09:36:40.825Z,5.22
2022-08-17T09:39:15.668Z,5.40
2022-08-17T09:42:19.519Z,5.75
2022-08-17T09:47:38.337Z,4.10
2022-08-17T09:50:15.882Z,4.63
2022-08-17T09:52:43.372Z,3.47
2022-08-17T09:55:09.803Z,2.80
2022-08-17T09:58:02.409Z,3.78
2022-08-17T10:00:35.704Z,3.42
2022-08-17T10:05:46.260Z,3.28
2022-08-17T10:08:21.826Z,3.20
2022-08-17T10:11:05.577Z,5.10
2022-08-17T10:13:40.408Z,5.03
2022-08-17T10:16:52.023Z,6.30
2022-08-17T10:19:48.745Z,7.45
2022-08-17T10:22:56.499Z,5.50
2022-08-17T10:25:54.667Z,3.08
2022-08-17T10:28:29.440Z,2.95
2022-08-17T10:31:30.996Z,3.28
2022-08-17T10:34:34.175Z,3.13
2022-08-17T10:37:44.534Z,5.07
2022-08-17T10:40:24.491Z,3.23
2022-08-17T10:43:05.125Z,6.15
2022-08-17T10:46:09.477Z,5.35
2022-08-17T10:49:15.255Z,4.63
2022-08-17T10:51:41.898Z,4.57
2022-08-17T10:54:35.004Z,6.15
2022-08-17T10:57:01.452Z,4.95
2022-08-17T10:59:50.716Z,3.85
2022-08-17T11:02:28.413Z,4.15
2022-08-17T11:05:00.885Z,3.42
2022-08-17T11:08:08.002Z,4.22
2022-08-17T11:10:51.919Z,5.68
2022-08-17T11:13:44.870Z,3.78
2022-08-17T11:16:29.975Z,5.32
2022-08-17T11:19:13.657Z,3.30
2022-08-17T11:21:50.346Z,5.40
2022-08-17T11:24:20.868Z,4.25
2022-08-17T11:27:20.516Z,4.50
2022-08-17T11:29:59.521Z,4.63
2022-08-17T11:32:47.084Z,4.70
2022-08-17T11:35:21.316Z,2.55
2022-08-17T11:37:59.213Z,3.17
2022-08-17T11:40:49.005Z,6.00
2022-08-17T11:43:28.984Z,3.58
2022-08-17T11:46:13.282Z,3.05
2022-08-17T11:49:08.961Z,4.40
2022-08-17T11:52:01.869Z,2.83
2022-08-17T11:54:34.951Z,5.80
2022-08-17T11:57:27.165Z,4.00
2022-08-17T11:59:57.706Z,4.72
2022-08-17T12:02:32.540Z,3.10
2022-08-17T12:05:15.425Z,2.35
2022-08-17T12:08:04.613Z,4.22
2022-08-17T12:10:36.742Z,5.90
2022-08-17T12:13:13.461Z,4.83
2022-08-17T12:15:50.411Z,4.30
2022-08-17T12:18:21.273Z,5.25
2022-08-17T12:21:04.303Z,6.25
2022-08-17T12:23:52.290Z,3.97
2022-08-17T12:26:32.746Z,6.50
2022-08-17T12:29:04.027Z,5.75
2022-08-17T12:31:43.627Z,5.30
2022-08-17T12:34:21.689Z,3.90
2022-08-17T12:36:51.665Z,4.60
2022-08-17T12:39:21.880Z,5.32
2022-08-17T12:44:28.704Z,5.18
2022-08-17T12:47:19.425Z,6.45
2022-08-17T12:49:51.312Z,4.50
2022-08-17T12:52:24.943Z,6.07
2022-08-17T12:54:59.536Z,5.88
2022-08-17T12:57:34.908Z,6.57
2022-08-17T13:00:30.363Z,6.20
2022-08-17T13:03:13.505Z,6.32
2022-08-17T13:05:43.516Z,4.97
2022-08-17T13:08:20.313Z,4.72
2022-08-17T13:11:05.072Z,4.20
2022-08-17T13:13:37.479Z,5.07
2022-08-17T13:16:09.421Z,4.15
2022-08-17T13:18:50.638Z,4.57
2022-08-17T13:21:26.970Z,5.90
2022-08-17T13:24:10.834Z,4.55
2022-08-17T13:26:42.027Z,6.10
2022-08-17T13:29:19.783Z,5.70
2022-08-17T13:31:52.816Z,4.57
2022-08-17T13:34:27.184Z,3.95
2022-08-17T13:37:32.730Z,5.63
2022-08-17T13:40:22.184Z,4.30
2022-08-17T13:42:52.830Z,5.70
2022-08-17T13:45:35.624Z,3.80
2022-08-17T13:48:12.537Z,4.85
2022-08-17T13:51:00.030Z,6.32
2022-08-17T13:53:33.122Z,4.85
2022-08-17T13:56:02.804Z,6.13
2022-08-17T13:58:32.963Z,5.60
2022-08-17T14:01:32.138Z,4.45
2022-08-17T14:04:00.456Z,3.20
2022-08-17T14:06:52.344Z,4.57
2022-08-17T14:09:20.426Z,4.50
2022-08-17T14:11:48.617Z,4.07
2022-08-17T14:14:16.443Z,5.43
2022-08-17T14:16:43.004Z,8.20
2022-08-17T14:19:14.600Z,5.25
2022-08-17T14:21:43.944Z,8.52
2022-08-17T14:24:30.127Z,4.80
2022-08-17T14:26:57.773Z,3.33
2022-08-17T14:29:27.986Z,4.88
2022-08-17T14:31:56.860Z,3.80
2022-08-17T14:34:24.586Z,6.78
2022-08-17T14:36:52.105Z,4.45
2022-08-17T14:39:20.245Z,4.13
2022-08-17T14:41:47.444Z,5.22
2022-08-17T14:44:16.181Z,4.03
2022-08-17T14:46:45.158Z,3.65
2022-08-17T14:49:13.191Z,4.22
2022-08-17T14:51:43.895Z,3.88
2022-08-17T14:54:11.971Z,3.75
2022-08-17T14:57:22.819Z,4.45
2022-08-17T14:59:45.773Z,4.10
2022-08-17T15:02:13.086Z,4.47
2022-08-17T15:04:44.873Z,4.68
2022-08-17T15:07:12.297Z,3.78
2022-08-17T15:09:38.925Z,5.10
2022-08-17T15:12:06.573Z,6.65
2022-08-17T15:14:35.642Z,4.32
2022-08-17T15:17:03.676Z,4.32
2022-08-17T15:19:30.701Z,3.90
2022-08-17T15:21:57.155Z,5.13
2022-08-17T15:24:24.075Z,4.35
2022-08-17T15:26:51.304Z,5.25
2022-08-17T15:29:17.665Z,12.90
2022-08-17T15:31:44.521Z,5.60
2022-08-17T15:34:11.435Z,4.43
2022-08-17T15:36:37.883Z,4.55
2022-08-17T15:39:07.681Z,4.88
2022-08-17T15:41:34.681Z,7.18
2022-08-17T15:44:01.063Z,4.07
2022-08-17T15:46:27.490Z,5.07
2022-08-17T15:48:59.247Z,5.65
2022-08-17T15:51:31.085Z,4.78
2022-08-17T15:54:04.262Z,4.35
2022-08-17T15:56:43.992Z,4.97
2022-08-17T15:59:10.348Z,4.82
2022-08-17T16:03:01.234Z,8.75
2022-08-17T16:04:29.722Z,6.82
2022-08-17T16:06:57.273Z,3.92
2022-08-17T16:09:23.664Z,7.05
2022-08-17T16:11:52.150Z,5.78
2022-08-17T16:14:23.201Z,5.00
2022-08-17T16:16:50.729Z,5.25
2022-08-17T16:19:17.136Z,5.05
2022-08-17T16:21:43.576Z,6.22
2022-08-17T16:24:13.717Z,5.30
2022-08-17T16:26:42.133Z,3.83
2022-08-17T16:29:08.640Z,4.70
2022-08-17T16:31:37.954Z,6.38
2022-08-17T16:34:16.813Z,5.82
2022-08-17T16:36:51.836Z,9.82
2022-08-17T16:39:27.590Z,4.70
2022-08-17T16:41:56.347Z,3.65
2022-08-17T16:44:22.950Z,4.63
2022-08-17T16:46:50.105Z,6.10
2022-08-17T16:49:36.025Z,4.70
2022-08-17T16:52:10.432Z,3.47
2022-08-17T16:54:39.323Z,4.47
2022-08-17T16:57:05.762Z,5.45
2022-08-17T16:59:41.893Z,6.57
2022-08-17T17:02:15.435Z,6.93
2022-08-17T17:04:57.872Z,6.00
2022-08-17T17:07:46.069Z,4.10
2022-08-17T17:10:15.315Z,3.65
2022-08-17T17:13:03.651Z,5.88
2022-08-17T17:15:42.164Z,3.00
2022-08-17T17:18:12.618Z,4.28
2022-08-17T17:20:54.543Z,4.60
2022-08-17T17:23:30.095Z,6.13
2022-08-17T17:26:10.871Z,3.63
2022-08-17T17:28:42.959Z,5.03
2022-08-17T17:31:19.427Z,5.30
2022-08-17T17:33:52.967Z,4.35
2022-08-17T17:36:48.209Z,4.30
2022-08-17T17:39:26.189Z,4.80
2022-08-17T17:41:59.881Z,3.63
2022-08-17T17:44:32.550Z,5.88
2022-08-17T17:47:01.167Z,7.03
2022-08-17T17:49:35.709Z,4.10
2022-08-17T17:52:18.393Z,7.07
2022-08-17T17:55:10.730Z,5.20
2022-08-17T17:57:54.756Z,3.55
2022-08-17T18:00:42.073Z,4.95
2022-08-17T18:03:19.543Z,5.88
2022-08-17T18:06:05.395Z,5.80
2022-08-17T18:08:37.366Z,4.03
2022-08-17T18:11:41.811Z,7.35
2022-08-17T18:16:54.103Z,9.85
2022-08-17T18:19:21.280Z,4.60
2022-08-17T18:21:54.622Z,5.45
2022-08-17T18:24:37.982Z,5.97
2022-08-17T18:27:20.221Z,7.00
2022-08-17T18:29:48.460Z,4.57
2022-08-17T18:32:27.123Z,7.07
2022-08-17T18:35:11.118Z,5.93
2022-08-17T18:37:48.754Z,6.85
2022-08-17T18:40:19.390Z,5.13
2022-08-17T18:43:02.777Z,4.47
2022-08-17T18:45:47.159Z,5.07
2022-08-17T18:48:49.383Z,7.07
2022-08-17T18:51:40.468Z,7.20
2022-08-17T18:54:14.025Z,13.38
2022-08-17T18:56:52.857Z,8.70
2022-08-17T18:59:22.520Z,9.05
2022-08-17T19:02:22.122Z,7.35
2022-08-17T19:05:03.620Z,7.97
2022-08-17T19:07:32.014Z,7.38
2022-08-17T19:10:06.337Z,4.95
2022-08-17T19:12:49.876Z,8.10
2022-08-17T19:15:25.067Z,5.95
2022-08-17T19:18:00.087Z,5.05
2022-08-17T19:20:38.170Z,8.82
2022-08-17T19:23:17.755Z,5.90
2022-08-17T19:25:52.683Z,9.23
2022-08-17T19:28:36.740Z,5.35
2022-08-17T19:31:23.293Z,6.32
2022-08-17T19:33:50.364Z,8.70
2022-08-17T19:36:21.357Z,6.38
2022-08-17T19:39:02.984Z,7.38
2022-08-17T19:41:54.755Z,4.40
2022-08-17T19:44:38.003Z,4.88
2022-08-17T19:47:43.777Z,5.60
2022-08-17T19:50:19.304Z,7.43
2022-08-17T19:53:03.617Z,5.28
2022-08-17T19:55:51.375Z,7.55
2022-08-17T19:59:07.529Z,6.50
2022-08-17T20:01:54.488Z,6.13
2022-08-17T20:04:32.638Z,5.15
2022-08-17T20:07:23.927Z,5.18
2022-08-17T20:10:02.545Z,8.98
2022-08-17T20:12:36.615Z,6.40
2022-08-17T20:15:13.554Z,5.68
2022-08-17T20:17:46.143Z,9.35
2022-08-17T20:20:19.957Z,5.80
2022-08-17T20:22:57.239Z,6.95
2022-08-17T20:25:46.309Z,5.30
2022-08-17T20:28:19.604Z,10.05
2022-08-17T20:30:50.643Z,5.40
2022-08-17T20:33:36.769Z,6.53
2022-08-17T20:36:26.217Z,9.48
2022-08-17T20:38:56.637Z,6.03
2022-08-17T20:41:26.125Z,4.57
2022-08-17T20:43:55.219Z,5.38
2022-08-17T20:46:37.701Z,4.40
2022-08-17T20:49:22.341Z,5.90
2022-08-17T20:52:00.722Z,4.90
2022-08-17T20:54:46.261Z,6.57
2022-08-17T20:57:31.653Z,6.35
2022-08-17T21:00:14.629Z,5.35
2022-08-17T21:02:46.725Z,7.60
2022-08-17T21:05:37.489Z,3.47
2022-08-17T21:08:24.971Z,11.05
2022-08-17T21:10:53.541Z,5.18
2022-08-17T21:13:33.338Z,7.78
2022-08-17T21:16:24.631Z,6.88
2022-08-17T21:19:17.634Z,5.47
2022-08-17T21:22:04.143Z,6.80
2022-08-17T21:24:52.443Z,9.30
2022-08-17T21:27:33.884Z,6.82
2022-08-17T21:30:10.121Z,7.55
2022-08-17T21:32:42.117Z,6.82
2022-08-17T21:35:12.523Z,10.52
2022-08-17T21:37:42.859Z,8.02
2022-08-17T21:40:18.826Z,7.72
2022-08-17T21:42:48.669Z,9.45
2022-08-17T21:45:30.698Z,10.27
2022-08-17T21:48:06.937Z,10.52
2022-08-17T21:50:34.695Z,15.63
2022-08-17T21:53:03.687Z,11.13
2022-08-17T21:55:34.193Z,11.43
2022-08-17T21:58:14.759Z,8.80
2022-08-17T22:00:44.952Z,8.23
2022-08-17T22:03:25.821Z,7.55
2022-08-17T22:05:52.967Z,9.07
2022-08-17T22:08:23.580Z,7.72
2022-08-17T22:10:51.649Z,12.25
2022-08-17T22:13:19.859Z,8.43
2022-08-17T22:16:27.722Z,8.63
2022-08-17T22:18:58.375Z,9.25
2022-08-17T22:21:25.245Z,10.27
2022-08-17T22:24:18.187Z,8.88
2022-08-17T22:27:07.521Z,10.60
2022-08-17T22:29:53.265Z,7.72
2022-08-17T22:32:38.775Z,9.07
2022-08-17T22:35:25.501Z,9.10
2022-08-17T22:37:52.192Z,7.70
2022-08-17T22:40:33.023Z,11.35
2022-08-17T22:43:03.267Z,11.02
2022-08-17T22:45:31.020Z,13.18
2022-08-17T22:48:00.598Z,9.02
2022-08-17T22:50:32.901Z,11.70
2022-08-17T22:53:21.533Z,9.05
2022-08-17T22:56:13.983Z,12.52
2022-08-17T22:59:11.454Z,7.70
2022-08-17T23:01:39.396Z,10.98
2022-08-17T23:04:12.980Z,9.98
2022-08-17T23:06:42.243Z,8.05
2022-08-17T23:09:08.953Z,9.82
2022-08-17T23:11:48.771Z,9.65
2022-08-17T23:14:20.026Z,11.82
2022-08-17T23:16:48.600Z,11.50
2022-08-17T23:19:21.053Z,8.88
2022-08-17T23:21:50.907Z,11.65
2022-08-17T23:24:22.504Z,9.20
2022-08-17T23:26:49.007Z,10.88
2022-08-17T23:29:16.500Z,13.10
2022-08-17T23:31:43.528Z,9.70
2022-08-17T23:34:12.949Z,9.55
2022-08-17T23:36:39.407Z,8.23
2022-08-17T23:39:07.412Z,12.13
2022-08-17T23:41:38.505Z,9.80
2022-08-17T23:44:06.294Z,9.05
2022-08-17T23:46:32.994Z,9.82
2022-08-17T23:48:59.443Z,12.55
2022-08-17T23:51:31.203Z,12.85
2022-08-17T23:54:08.204Z,9.50
2022-08-17T23:56:40.566Z,10.95
2022-08-17T23:59:06.915Z,10.70
